Augsburg, Illinois
Current Conditions -  °F | °C
As of 12:35 AM on Thursday 27 Nov 2014 (Local Time) from KENL Reporting Station
Haze Haze  
Wind Chill: -4°   Ceiling: 500
Heat Index:   Visibility: 5mi
Dew Point: -2°   Wind: 7mph
Humidity: 92%   Direction: 360°N
Pressure: 30.19"   Gusts: NA
Location:  38.8463°N, 89.0894°W
Report Text: KENL 270635Z AUTO 36006KT 5SM BR OVC005 00/M02 A3019 RMK AO2 T10051016
Loading
Personal Weather Stations






























Interactive Weather Map New forecast layout! Learn more

10-Day Weather Forecast

Advertisements
Track Severe Weather on mobile